Time;durP1;ratioP1;P1;durP2;ratioP2;P2;SDS_P1;SDS_P2;PMS_P1;PMS_P2;Temp;Humidity;BMP_temperature;BMP_pressure;BME280_temperature;BME280_humidity;BME280_pressure;Samples;Min_cycle;Max_cycle;Signal;HPM_P1;HPM_P2
2022/06/20 00:00:34;;;;;;;0.25;0.25;;;21.90;99.90;;;;;;5000809;28;20034;-85
2022/06/20 00:03:00;;;;;;;0.60;0.60;;;21.90;99.90;;;;;;5002954;28;20075;-84
2022/06/20 00:05:32;;;;;;;1.38;1.02;;;21.90;99.90;;;;;;5001643;28;20031;-85
2022/06/20 00:07:57;;;;;;;2.72;1.35;;;21.80;99.90;;;;;;4998518;28;20503;-85
2022/06/20 00:10:26;;;;;;;5.80;0.47;;;21.80;99.90;;;;;;5004051;28;20048;-85
2022/06/20 00:12:52;;;;;;;0.50;0.50;;;21.80;99.90;;;;;;5018092;28;20037;-85
2022/06/20 00:15:28;;;;;;;0.20;0.20;;;21.70;99.90;;;;;;5019658;28;20064;-84
2022/06/20 00:17:55;;;;;;;0.65;0.65;;;21.60;99.90;;;;;;5020471;28;20124;-85
2022/06/20 00:20:21;;;;;;;0.75;0.75;;;21.60;99.90;;;;;;5008820;28;20044;-83
2022/06/20 00:22:47;;;;;;;0.28;0.28;;;21.60;99.90;;;;;;5018138;28;20724;-86
2022/06/20 00:25:12;;;;;;;0.50;0.50;;;21.40;99.90;;;;;;5017846;28;20839;-84
2022/06/20 00:27:38;;;;;;;0.30;0.30;;;21.40;99.90;;;;;;5004054;28;20033;-84
2022/06/20 00:30:05;;;;;;;0.50;0.50;;;21.30;99.90;;;;;;5017680;28;20063;-85
2022/06/20 00:32:31;;;;;;;0.45;0.45;;;21.30;99.90;;;;;;5017959;28;20524;-84
2022/06/20 00:34:57;;;;;;;5.70;0.83;;;21.30;99.90;;;;;;5018372;28;20041;-84
2022/06/20 00:37:22;;;;;;;0.70;0.70;;;21.30;99.90;;;;;;5018194;28;20104;-84
2022/06/20 00:39:50;;;;;;;5.10;1.07;;;21.30;99.90;;;;;;5019127;28;20122;-84
2022/06/20 00:42:17;;;;;;;6.00;0.75;;;21.30;99.90;;;;;;5017892;28;20040;-84
2022/06/20 00:44:49;;;;;;;0.25;0.25;;;21.30;99.90;;;;;;5017799;28;20071;-85
2022/06/20 00:47:23;;;;;;;6.25;2.20;;;21.30;99.90;;;;;;5017930;28;20060;-84
2022/06/20 00:50:04;;;;;;;3.95;0.35;;;21.20;99.90;;;;;;5018615;28;20028;-85
2022/06/20 00:52:59;;;;;;;6.88;2.35;;;21.30;99.90;;;;;;5021626;28;20510;-85
2022/06/20 00:55:34;;;;;;;0.10;0.10;;;21.30;99.90;;;;;;5003016;28;20073;-85
2022/06/20 00:58:18;;;;;;;0.47;0.47;;;21.40;99.90;;;;;;5018336;28;20087;-84
2022/06/20 01:00:44;;;;;;;1.02;0.93;;;21.50;99.90;;;;;;5016910;28;20138;-85
2022/06/20 01:03:16;;;;;;;0.60;0.60;;;21.40;99.90;;;;;;5016235;28;20033;-85
2022/06/20 01:05:50;;;;;;;0.20;0.20;;;21.40;99.90;;;;;;5016770;28;20052;-86
2022/06/20 01:08:30;;;;;;;0.98;0.98;;;21.40;99.90;;;;;;5019623;28;20116;-85
2022/06/20 01:11:11;;;;;;;0.13;0.13;;;21.40;99.90;;;;;;5031040;28;20037;-85
2022/06/20 01:13:37;;;;;;;0.82;0.77;;;21.50;99.90;;;;;;5018036;28;20094;-85
2022/06/20 01:16:35;;;;;;;0.57;0.53;;;21.50;99.90;;;;;;5017798;28;20749;-85
2022/06/20 01:19:09;;;;;;;0.10;0.10;;;21.50;99.90;;;;;;5012841;28;20739;-85
2022/06/20 01:21:35;;;;;;;1.90;0.65;;;21.50;99.90;;;;;;4994787;28;20039;-85
2022/06/20 01:24:01;;;;;;;;;;;21.50;99.90;;;;;;5000980;28;20571;-85
2022/06/20 01:26:56;;;;;;;0.47;0.47;;;21.40;99.90;;;;;;5018355;28;19978;-84
2022/06/20 01:29:22;;;;;;;0.98;0.43;;;21.40;99.90;;;;;;5019386;28;20056;-85
2022/06/20 01:31:53;;;;;;;0.08;0.08;;;21.40;99.90;;;;;;5022431;28;20083;-85
2022/06/20 01:34:19;;;;;;;4.55;0.77;;;21.40;99.90;;;;;;5019934;28;20038;-85
2022/06/20 01:39:43;;;;;;;0.30;0.30;;;21.40;99.90;;;;;;5022657;28;20855;-85
2022/06/20 01:42:20;;;;;;;0.10;0.10;;;21.50;99.90;;;;;;5004021;28;20043;-85
2022/06/20 01:45:57;;;;;;;1.52;1.02;;;21.50;99.90;;;;;;5023245;28;20740;-85
2022/06/20 01:47:52;;;;;;;11.15;1.33;;;21.50;99.90;;;;;;5022072;28;20033;-85
2022/06/20 01:50:17;;;;;;;0.37;0.23;;;21.70;99.90;;;;;;5021824;28;20083;-86
2022/06/20 01:52:44;;;;;;;0.53;0.53;;;21.80;99.90;;;;;;5021100;28;20953;-85
2022/06/20 01:55:15;;;;;;;;;;;21.70;99.90;;;;;;5019451;28;20517;-85
2022/06/20 01:57:43;;;;;;;0.30;0.30;;;21.90;99.90;;;;;;5022173;28;22024;-86
2022/06/20 02:00:14;;;;;;;0.38;0.38;;;21.90;99.90;;;;;;5021378;28;20807;-84
2022/06/20 02:02:45;;;;;;;0.45;0.45;;;21.90;99.90;;;;;;5022233;28;20573;-85
2022/06/20 02:05:16;;;;;;;0.28;0.28;;;21.90;99.90;;;;;;5022065;28;21198;-84
2022/06/20 02:07:42;;;;;;;2.80;1.52;;;21.90;99.90;;;;;;5021518;28;20033;-85
2022/06/20 02:10:11;;;;;;;3.72;0.32;;;22.00;99.90;;;;;;5005953;28;20081;-86
2022/06/20 02:12:40;;;;;;;4.85;1.20;;;21.80;99.90;;;;;;5001338;28;20943;-86
2022/06/20 02:15:07;;;;;;;15.77;1.33;;;21.90;99.90;;;;;;5004356;28;20046;-86
2022/06/20 02:17:39;;;;;;;3.15;0.90;;;22.00;99.90;;;;;;4983726;28;20446;-84
2022/06/20 02:20:13;;;;;;;5.03;1.10;;;21.90;99.90;;;;;;5001723;28;20076;-85
2022/06/20 02:22:41;;;;;;;16.98;1.70;;;21.80;99.90;;;;;;5001704;28;20038;-85
2022/06/20 02:25:11;;;;;;;0.22;0.22;;;21.70;99.90;;;;;;5001478;28;20103;-85
2022/06/20 02:27:45;;;;;;;0.60;0.60;;;21.60;99.90;;;;;;5004895;28;20139;-85
2022/06/20 02:30:12;;;;;;;1.35;0.77;;;21.50;99.90;;;;;;5000910;28;20033;-84
2022/06/20 02:32:45;;;;;;;0.30;0.30;;;21.30;99.90;;;;;;5004366;28;20040;-85
2022/06/20 02:35:15;;;;;;;1.02;0.45;;;21.10;99.90;;;;;;5001231;28;20068;-84
2022/06/20 02:37:41;;;;;;;0.17;0.17;;;21.20;99.90;;;;;;5001651;28;20433;-85
2022/06/20 02:40:11;;;;;;;0.20;0.20;;;21.20;99.90;;;;;;5020481;28;20044;-84
2022/06/20 02:43:16;;;;;;;0.43;0.35;;;21.30;99.90;;;;;;5014639;28;20502;-85
2022/06/20 02:45:45;;;;;;;0.38;0.38;;;21.10;99.90;;;;;;4998701;28;20041;-85
2022/06/20 02:48:13;;;;;;;0.30;0.30;;;21.20;99.90;;;;;;5000391;28;20034;-85
2022/06/20 02:50:44;;;;;;;7.25;1.25;;;21.40;99.90;;;;;;4977477;28;20029;-85
2022/06/20 02:53:21;;;;;;;1.00;0.70;;;21.40;99.90;;;;;;5000497;28;20572;-85
2022/06/20 02:55:49;;;;;;;0.35;0.35;;;21.50;99.90;;;;;;5002244;28;20120;-85
2022/06/20 02:58:28;;;;;;;0.40;0.40;;;21.50;99.90;;;;;;5001006;28;20088;-84
2022/06/20 03:01:15;;;;;;;1.27;1.17;;;21.30;99.90;;;;;;4992787;28;20131;-86
2022/06/20 03:03:48;;;;;;;0.20;0.20;;;21.30;99.90;;;;;;4999690;28;20042;-85
2022/06/20 03:06:33;;;;;;;0.40;0.40;;;21.30;99.90;;;;;;5000013;28;20124;-85
2022/06/20 03:09:00;;;;;;;0.32;0.25;;;21.40;99.90;;;;;;4988733;28;20153;-86
2022/06/20 03:11:28;;;;;;;0.10;0.10;;;21.40;99.90;;;;;;5028560;28;20021;-85
2022/06/20 03:13:57;;;;;;;0.45;0.40;;;21.50;98.00;;;;;;5021248;28;20537;-85
2022/06/20 03:16:23;;;;;;;0.57;0.43;;;21.60;96.70;;;;;;5019987;28;20051;-86
2022/06/20 03:18:50;;;;;;;0.65;0.55;;;21.70;95.70;;;;;;5017792;28;20048;-84
2022/06/20 03:21:24;;;;;;;1.05;0.50;;;21.80;94.70;;;;;;5019209;28;20029;-85
2022/06/20 03:23:50;;;;;;;0.50;0.50;;;21.80;95.60;;;;;;5021970;28;20033;-85
2022/06/20 03:26:22;;;;;;;0.47;0.47;;;21.60;97.90;;;;;;5018733;28;20071;-85
2022/06/20 03:28:48;;;;;;;1.38;1.08;;;21.30;99.90;;;;;;5025037;28;20369;-85
2022/06/20 03:31:14;;;;;;;0.65;0.65;;;21.20;99.90;;;;;;5003226;28;20666;-85
2022/06/20 03:33:41;;;;;;;2.60;2.20;;;21.10;99.90;;;;;;5019593;28;20052;-85
2022/06/20 03:36:10;;;;;;;0.63;0.63;;;21.10;99.90;;;;;;5023707;28;20040;-85
2022/06/20 03:38:38;;;;;;;1.67;0.65;;;21.10;99.90;;;;;;5019107;28;20037;-85
2022/06/20 03:41:06;;;;;;;2.45;1.23;;;21.10;99.90;;;;;;5020646;28;20149;-84
2022/06/20 03:43:33;;;;;;;12.50;0.30;;;21.00;99.90;;;;;;5021066;28;20463;-85
2022/06/20 03:46:03;;;;;;;0.60;0.60;;;20.90;99.90;;;;;;5019595;28;20542;-84
2022/06/20 03:48:34;;;;;;;1.73;1.30;;;20.60;99.90;;;;;;5020517;28;20480;-85
2022/06/20 03:51:11;;;;;;;2.70;1.10;;;20.40;99.90;;;;;;5019991;28;20033;-86
2022/06/20 03:53:42;;;;;;;0.38;0.32;;;20.20;99.90;;;;;;5018893;28;20078;-86
2022/06/20 03:56:18;;;;;;;0.88;0.88;;;20.10;99.90;;;;;;5018933;28;20040;-85
2022/06/20 03:58:57;;;;;;;0.22;0.20;;;20.00;99.90;;;;;;5035553;23;20161;-81
2022/06/20 04:01:47;;;;;;;0.40;0.40;;;20.40;99.90;;;;;;4985412;28;20136;-82
2022/06/20 04:04:32;;;;;;;3.00;0.55;;;20.80;99.90;;;;;;4984770;28;20127;-82
2022/06/20 04:07:06;;;;;;;1.10;0.70;;;20.70;99.90;;;;;;4996445;28;20026;-83
2022/06/20 04:12:48;;;;;;;0.20;0.20;;;20.60;99.90;;;;;;5001674;28;20065;-83
2022/06/20 04:15:20;;;;;;;29.95;1.20;;;20.80;99.90;;;;;;5000491;28;20038;-83
2022/06/20 04:20:55;;;;;;;2.40;1.38;;;20.50;99.90;;;;;;5002278;28;20437;-84
2022/06/20 04:23:27;;;;;;;6.40;1.95;;;20.50;99.90;;;;;;4999721;28;20037;-83
2022/06/20 04:26:09;;;;;;;0.55;0.52;;;21.00;99.90;;;;;;4996373;28;20049;-85
2022/06/20 04:28:42;;;;;;;2.40;1.10;;;21.30;99.90;;;;;;4998012;28;20112;-81
2022/06/20 04:31:11;;;;;;;0.60;0.60;;;21.40;99.90;;;;;;5001063;28;20034;-81
2022/06/20 04:33:42;;;;;;;1.25;0.35;;;21.40;99.90;;;;;;4994344;28;20026;-80
2022/06/20 04:36:50;;;;;;;0.30;0.30;;;21.10;99.90;;;;;;4999524;28;20052;-80
2022/06/20 04:39:28;;;;;;;23.38;2.17;;;21.00;99.90;;;;;;4941133;29;20046;-77
2022/06/20 04:42:01;;;;;;;2.45;1.02;;;21.20;99.90;;;;;;4941700;29;20039;-77
2022/06/20 04:44:59;;;;;;;0.17;0.17;;;21.40;99.90;;;;;;4942706;28;20046;-77
2022/06/20 04:47:46;;;;;;;0.80;0.63;;;21.50;99.90;;;;;;4939940;28;20082;-80
2022/06/20 04:50:19;;;;;;;0.93;0.85;;;21.50;99.90;;;;;;4939533;28;20031;-78
2022/06/20 04:52:48;;;;;;;0.55;0.52;;;21.60;99.90;;;;;;4940493;29;20473;-82
2022/06/20 04:55:17;;;;;;;0.38;0.30;;;21.40;99.90;;;;;;4940479;29;20046;-83
2022/06/20 04:57:43;;;;;;;1.13;0.65;;;21.60;99.90;;;;;;4946023;28;20114;-83
2022/06/20 05:00:26;;;;;;;0.52;0.40;;;21.60;99.60;;;;;;4945068;28;20618;-87
2022/06/20 05:02:54;;;;;;;0.10;0.10;;;21.70;97.40;;;;;;4925723;29;20486;-90
2022/06/20 05:05:24;;;;;;;0.20;0.20;;;21.80;98.10;;;;;;4941408;29;20511;-88
2022/06/20 05:07:50;;;;;;;1.30;0.50;;;21.70;97.70;;;;;;4940962;29;20100;-86
2022/06/20 05:10:25;;;;;;;0.10;0.10;;;21.90;97.00;;;;;;4939997;28;20441;-87
2022/06/20 05:12:59;;;;;;;1.08;0.88;;;21.80;97.60;;;;;;4940759;29;20038;-87
2022/06/20 05:15:35;;;;;;;0.30;0.30;;;21.80;96.80;;;;;;4991120;28;20046;-89
2022/06/20 05:18:10;;;;;;;2.92;1.38;;;21.80;98.10;;;;;;5000138;28;20030;-91
2022/06/20 05:20:38;;;;;;;1.50;1.27;;;21.90;98.20;;;;;;5004095;28;20041;-88
2022/06/20 05:23:26;;;;;;;0.20;0.20;;;22.60;96.50;;;;;;5004628;28;20037;-91
2022/06/20 05:25:53;;;;;;;0.17;0.15;;;23.20;95.10;;;;;;4985847;28;20034;-88
2022/06/20 05:28:24;;;;;;;0.00;0.00;;;24.00;93.80;;;;;;5001637;28;20030;-87
2022/06/20 05:30:50;;;;;;;0.73;0.60;;;23.10;95.40;;;;;;4998777;28;20061;-87
2022/06/20 05:33:45;;;;;;;0.22;0.22;;;23.10;95.60;;;;;;4999996;28;20034;-83
2022/06/20 05:36:11;;;;;;;0.20;0.20;;;23.70;94.90;;;;;;5002942;28;20042;-85
2022/06/20 05:38:46;;;;;;;0.30;0.30;;;24.50;91.70;;;;;;5005922;28;20588;-94
2022/06/20 05:41:16;;;;;;;0.88;0.80;;;23.50;94.00;;;;;;4997140;28;20018;-86
2022/06/20 05:43:41;;;;;;;3.65;0.90;;;24.30;93.10;;;;;;4985156;28;20602;-87
2022/06/20 05:46:13;;;;;;;0.10;0.10;;;23.50;93.60;;;;;;4984010;28;20034;-87
2022/06/20 05:48:50;;;;;;;1.15;0.93;;;23.70;93.70;;;;;;4991341;28;20117;-87
2022/06/20 05:51:19;;;;;;;8.27;1.23;;;24.20;92.90;;;;;;5001042;28;20061;-89
2022/06/20 05:53:56;;;;;;;2.65;0.68;;;26.00;91.50;;;;;;5001246;28;20624;-83
2022/06/20 05:56:27;;;;;;;0.30;0.30;;;27.30;81.80;;;;;;5000359;28;20105;-82
2022/06/20 05:58:55;;;;;;;3.92;0.88;;;28.60;76.00;;;;;;4984044;28;20576;-83
2022/06/20 06:01:32;;;;;;;0.47;0.38;;;29.50;72.60;;;;;;4995193;28;20057;-82
2022/06/20 06:04:29;;;;;;;0.08;0.08;;;29.50;74.80;;;;;;4977167;28;20026;-82
2022/06/20 06:07:22;;;;;;;0.13;0.13;;;28.60;72.90;;;;;;4998036;28;20120;-84
2022/06/20 06:09:54;;;;;;;0.52;0.38;;;28.90;73.60;;;;;;4999751;28;20118;-84
2022/06/20 06:12:33;;;;;;;0.60;0.60;;;29.50;70.50;;;;;;4982953;28;20041;-82
2022/06/20 06:15:03;;;;;;;0.17;0.17;;;30.20;71.40;;;;;;5001825;28;20030;-82
2022/06/20 06:17:29;;;;;;;0.00;0.00;;;30.50;70.50;;;;;;4998236;28;20041;-82
2022/06/20 06:19:56;;;;;;;0.25;0.25;;;30.80;68.30;;;;;;4998056;28;20034;-82
2022/06/20 06:22:34;;;;;;;0.40;0.40;;;31.00;68.20;;;;;;5000211;28;20117;-81
2022/06/20 06:25:31;;;;;;;8.02;0.32;;;31.10;65.40;;;;;;4993912;28;20037;-81
2022/06/20 06:28:05;;;;;;;1.38;0.20;;;31.50;63.40;;;;;;4996346;28;20747;-80
2022/06/20 06:30:43;;;;;;;4.30;0.57;;;31.30;61.90;;;;;;4992371;28;20398;-79
2022/06/20 06:33:34;;;;;;;0.13;0.13;;;32.10;63.80;;;;;;4993497;28;20537;-80
2022/06/20 06:36:30;;;;;;;0.52;0.22;;;32.70;63.10;;;;;;5002446;28;20036;-83
2022/06/20 06:39:10;;;;;;;0.20;0.20;;;32.80;62.60;;;;;;4980998;28;20042;-83
2022/06/20 06:41:45;;;;;;;0.88;0.40;;;33.20;62.00;;;;;;4993129;28;20062;-83
2022/06/20 06:44:30;;;;;;;1.77;0.65;;;33.00;61.20;;;;;;4997386;28;20029;-82
2022/06/20 06:46:56;;;;;;;;;;;32.50;64.10;;;;;;4992027;28;20045;-83
2022/06/20 06:49:40;;;;;;;1.80;0.43;;;33.10;60.40;;;;;;5000449;28;20384;-84
2022/06/20 06:52:11;;;;;;;;;;;33.20;62.00;;;;;;5003210;28;20121;-86
2022/06/20 06:55:03;;;;;;;0.32;0.30;;;33.50;57.60;;;;;;5001493;28;19938;-86
2022/06/20 06:58:04;;;;;;;0.30;0.30;;;34.30;57.80;;;;;;5002033;28;20050;-86
2022/06/20 07:00:41;;;;;;;0.10;0.10;;;35.20;56.90;;;;;;4939810;29;20082;-86
2022/06/20 07:03:16;;;;;;;1.83;1.30;;;35.00;52.80;;;;;;4934599;29;20035;-86
2022/06/20 07:05:48;;;;;;;0.57;0.57;;;34.50;53.50;;;;;;4940665;29;20247;-86
2022/06/20 07:08:24;;;;;;;0.30;0.30;;;34.50;53.70;;;;;;4942000;29;20047;-86
2022/06/20 07:10:55;;;;;;;0.20;0.20;;;35.80;50.70;;;;;;4941860;29;20051;-86
2022/06/20 07:13:35;;;;;;;0.20;0.20;;;36.00;53.00;;;;;;4941958;29;20502;-86
2022/06/20 07:16:03;;;;;;;1.88;0.93;;;35.20;52.80;;;;;;4932644;29;20075;-86
2022/06/20 07:18:46;;;;;;;0.30;0.30;;;34.30;53.60;;;;;;4942314;29;20430;-86
2022/06/20 07:21:17;;;;;;;0.08;0.08;;;35.20;52.20;;;;;;4939095;29;20054;-85
2022/06/20 07:23:50;;;;;;;0.08;0.00;;;36.20;51.50;;;;;;4926164;29;20150;-85
2022/06/20 07:26:18;;;;;;;0.98;0.47;;;35.10;51.80;;;;;;4939857;29;20520;-87
2022/06/20 07:28:48;;;;;;;0.30;0.30;;;36.10;50.50;;;;;;4936283;29;20057;-88
2022/06/20 07:31:38;;;;;;;0.90;0.85;;;36.90;49.40;;;;;;4920340;28;20051;-87
2022/06/20 07:34:19;;;;;;;1.52;0.38;;;37.20;47.10;;;;;;4933174;29;20121;-86
2022/06/20 07:36:49;;;;;;;0.10;0.10;;;37.90;46.00;;;;;;4976538;28;20041;-84
2022/06/20 07:39:24;;;;;;;0.35;0.35;;;37.60;46.10;;;;;;5007023;28;20029;-84
2022/06/20 07:41:55;;;;;;;1.77;0.40;;;37.90;49.20;;;;;;5023690;28;20048;-83
2022/06/20 07:44:49;;;;;;;0.38;0.22;;;38.20;44.90;;;;;;5024571;28;20088;-84
2022/06/20 07:47:17;;;;;;;0.03;0.03;;;38.30;47.00;;;;;;5021187;28;20416;-83
2022/06/20 07:50:14;;;;;;;0.10;0.10;;;38.40;44.40;;;;;;5024616;28;20032;-84
2022/06/20 07:52:47;;;;;;;0.20;0.20;;;39.30;44.10;;;;;;5017281;28;20025;-83
2022/06/20 07:55:17;;;;;;;0.10;0.10;;;38.90;43.80;;;;;;5023450;28;20041;-84
2022/06/20 07:57:56;;;;;;;0.10;0.10;;;38.70;45.40;;;;;;5005642;28;20041;-83
2022/06/20 08:00:26;;;;;;;0.70;0.70;;;38.90;42.90;;;;;;5004046;28;20073;-83
2022/06/20 08:03:02;;;;;;;0.30;0.30;;;37.90;45.10;;;;;;5003136;28;20045;-83
2022/06/20 08:05:35;;;;;;;0.28;0.28;;;39.30;42.70;;;;;;5003773;28;20053;-83
2022/06/20 08:08:07;;;;;;;0.10;0.10;;;38.50;43.00;;;;;;5003241;28;20497;-83
2022/06/20 08:10:38;;;;;;;0.30;0.30;;;38.00;43.50;;;;;;5003742;28;20033;-83
2022/06/20 08:13:15;;;;;;;1.08;0.25;;;38.80;43.80;;;;;;5004202;28;20029;-83
2022/06/20 08:16:00;;;;;;;0.20;0.20;;;37.70;44.10;;;;;;4998703;28;20108;-83
2022/06/20 08:18:28;;;;;;;1.02;0.63;;;38.80;43.20;;;;;;5003220;28;20030;-84
2022/06/20 08:21:03;;;;;;;0.10;0.00;;;39.60;43.40;;;;;;5004536;28;20034;-83
2022/06/20 08:23:44;;;;;;;0.10;0.10;;;39.60;43.60;;;;;;5003102;28;20084;-84
2022/06/20 08:26:18;;;;;;;0.10;0.10;;;40.20;42.90;;;;;;5003240;28;20034;-83
2022/06/20 08:28:58;;;;;;;0.50;0.22;;;39.80;43.20;;;;;;5006656;28;20044;-83
2022/06/20 08:31:31;;;;;;;0.22;0.22;;;40.50;42.30;;;;;;4976340;28;20120;-83
2022/06/20 08:33:59;;;;;;;0.03;0.03;;;39.30;43.00;;;;;;4984729;28;20026;-82
2022/06/20 08:37:01;;;;;;;0.10;0.10;;;35.40;48.50;;;;;;5002722;28;20144;-82
2022/06/20 08:39:49;;;;;;;1.00;0.57;;;34.10;52.30;;;;;;4995941;28;20125;-83
2022/06/20 08:42:35;;;;;;;0.10;0.10;;;37.50;46.10;;;;;;4994827;28;20035;-83
2022/06/20 08:45:23;;;;;;;3.72;0.10;;;38.80;43.60;;;;;;5002826;28;20467;-83
2022/06/20 08:48:18;;;;;;;1.17;0.75;;;38.30;45.70;;;;;;5001475;28;20034;-83
2022/06/20 08:50:47;;;;;;;0.03;0.03;;;37.40;48.10;;;;;;5003315;28;20034;-83
2022/06/20 08:53:34;;;;;;;3.72;0.75;;;39.80;43.90;;;;;;5002902;28;20037;-83
2022/06/20 08:56:19;;;;;;;7.78;0.75;;;36.20;45.80;;;;;;5002728;28;20042;-82
2022/06/20 08:58:47;;;;;;;0.45;0.40;;;35.60;47.20;;;;;;5002358;28;20089;-83
2022/06/20 09:01:28;;;;;;;0.98;0.73;;;38.20;45.30;;;;;;5002440;28;20124;-83
2022/06/20 09:04:13;;;;;;;0.82;0.82;;;39.50;43.20;;;;;;5002822;28;20154;-83
2022/06/20 09:06:39;;;;;;;0.35;0.35;;;35.70;45.90;;;;;;5002424;28;20079;-82
2022/06/20 09:09:35;;;;;;;0.17;0.17;;;33.30;49.10;;;;;;4999326;28;20116;-83
2022/06/20 09:12:15;;;;;;;0.60;0.60;;;32.90;52.30;;;;;;5002816;28;20037;-84
2022/06/20 09:15:01;;;;;;;0.10;0.10;;;33.20;51.20;;;;;;5002254;28;20077;-84
2022/06/20 09:18:00;;;;;;;0.13;0.13;;;33.40;51.90;;;;;;5002717;28;20042;-82
2022/06/20 09:20:58;;;;;;;0.17;0.17;;;34.50;50.70;;;;;;5003146;28;20045;-82
2022/06/20 09:23:36;;;;;;;0.52;0.50;;;35.10;48.40;;;;;;5002288;28;20022;-82
2022/06/20 09:26:22;;;;;;;0.10;0.10;;;33.50;50.50;;;;;;5002489;28;20728;-82
2022/06/20 09:29:17;;;;;;;0.13;0.13;;;33.00;52.00;;;;;;5002362;28;20048;-82
2022/06/20 09:32:14;;;;;;;2.00;0.80;;;33.00;53.70;;;;;;4995881;28;20109;-82
2022/06/20 09:34:57;;;;;;;0.10;0.10;;;33.40;51.80;;;;;;4994530;28;20057;-82
2022/06/20 09:37:47;;;;;;;0.32;0.28;;;32.90;55.20;;;;;;4992776;28;20041;-84
2022/06/20 09:40:46;;;;;;;0.65;0.17;;;32.00;57.20;;;;;;5002361;28;20397;-84
2022/06/20 09:43:21;;;;;;;0.52;0.52;;;32.00;55.80;;;;;;4984340;28;20033;-83
2022/06/20 09:46:08;;;;;;;0.20;0.20;;;31.80;55.10;;;;;;5002899;28;20083;-83
2022/06/20 09:49:05;;;;;;;1.67;0.85;;;30.90;58.60;;;;;;5002128;28;20401;-84
2022/06/20 09:51:46;;;;;;;0.65;0.45;;;30.90;61.60;;;;;;5001783;28;20121;-84
2022/06/20 09:54:29;;;;;;;0.10;0.10;;;31.80;57.50;;;;;;5000125;28;20026;-84
2022/06/20 09:57:27;;;;;;;0.93;0.60;;;31.90;60.10;;;;;;5005739;28;20022;-84
2022/06/20 10:00:04;;;;;;;0.32;0.20;;;31.60;58.90;;;;;;5007526;28;20532;-84
2022/06/20 10:02:44;;;;;;;0.35;0.17;;;33.70;58.20;;;;;;5008164;28;20677;-84
2022/06/20 10:05:31;;;;;;;0.93;0.73;;;32.60;56.60;;;;;;5007496;28;20121;-84
2022/06/20 10:08:12;;;;;;;0.35;0.25;;;32.00;59.30;;;;;;5010375;28;20120;-84
2022/06/20 10:11:24;;;;;;;0.57;0.57;;;31.80;58.10;;;;;;5010260;28;20057;-83
2022/06/20 10:14:02;;;;;;;28.85;1.60;;;32.20;59.30;;;;;;4942553;28;20051;-84
2022/06/20 10:20:00;;;;;;;0.63;0.63;;;32.70;57.00;;;;;;4943161;28;20616;-84
2022/06/20 10:22:54;;;;;;;0.63;0.52;;;32.20;57.40;;;;;;4940081;28;20098;-84
2022/06/20 10:25:25;;;;;;;0.68;0.68;;;32.20;57.70;;;;;;4945417;28;20051;-84
2022/06/20 10:28:16;;;;;;;0.20;0.15;;;35.00;53.50;;;;;;4945810;28;20132;-84
2022/06/20 10:30:42;;;;;;;14.73;1.40;;;38.10;49.70;;;;;;4927695;28;20110;-82
2022/06/20 10:33:34;;;;;;;0.47;0.40;;;36.40;50.20;;;;;;4949160;28;20452;-82
2022/06/20 10:36:21;;;;;;;0.63;0.63;;;34.30;52.80;;;;;;4948296;28;20051;-84
2022/06/20 10:39:08;;;;;;;0.52;0.52;;;33.40;55.40;;;;;;4948354;28;20102;-84
2022/06/20 10:41:52;;;;;;;2.13;0.57;;;33.90;53.00;;;;;;4932235;29;20074;-84
2022/06/20 10:44:40;;;;;;;1.33;1.10;;;34.30;54.70;;;;;;4948170;28;20192;-84
2022/06/20 10:47:18;;;;;;;0.45;0.43;;;34.10;53.70;;;;;;4948221;28;20043;-83
2022/06/20 10:50:02;;;;;;;2.22;1.02;;;33.80;53.70;;;;;;4952351;28;20039;-84
2022/06/20 10:52:45;;;;;;;0.40;0.40;;;33.40;53.70;;;;;;5000524;28;20445;-84
2022/06/20 10:55:13;;;;;;;1.83;0.50;;;33.00;55.80;;;;;;5008755;28;20021;-83
2022/06/20 10:57:59;;;;;;;0.98;0.22;;;33.20;56.10;;;;;;4999739;28;20044;-84
2022/06/20 11:00:27;;;;;;;0.38;0.38;;;32.90;55.90;;;;;;5003105;28;20102;-84
2022/06/20 11:03:04;;;;;;;0.20;0.20;;;32.60;57.70;;;;;;5005304;28;20045;-84
2022/06/20 11:05:46;;;;;;;0.20;0.20;;;32.70;59.70;;;;;;5004679;28;20049;-84
2022/06/20 11:08:26;;;;;;;1.13;1.08;;;33.00;55.70;;;;;;5003641;28;20060;-84
2022/06/20 11:11:03;;;;;;;0.47;0.43;;;33.10;56.60;;;;;;5004301;28;20029;-84
2022/06/20 11:13:41;;;;;;;0.10;0.08;;;32.70;57.10;;;;;;5004586;28;20030;-84
2022/06/20 11:16:19;;;;;;;0.68;0.38;;;32.20;60.30;;;;;;5004854;28;20097;-84
2022/06/20 11:19:10;;;;;;;0.22;0.22;;;31.90;55.90;;;;;;5000159;28;20497;-84
2022/06/20 11:21:39;;;;;;;0.25;0.20;;;32.30;56.00;;;;;;5004101;28;20025;-83
2022/06/20 11:24:33;;;;;;;0.10;0.10;;;31.60;56.40;;;;;;5001172;28;20044;-84
2022/06/20 11:27:10;;;;;;;0.10;0.10;;;31.70;57.40;;;;;;5004965;28;20034;-84
2022/06/20 11:30:04;;;;;;;0.50;0.50;;;32.30;57.80;;;;;;5005095;28;20501;-84
2022/06/20 11:32:38;;;;;;;0.85;0.55;;;31.40;55.70;;;;;;5004619;28;20088;-84
2022/06/20 11:35:24;;;;;;;0.38;0.32;;;31.60;58.20;;;;;;4997554;28;20121;-84
2022/06/20 11:37:58;;;;;;;0.00;0.00;;;31.80;57.70;;;;;;5004855;28;20026;-84
2022/06/20 11:41:02;;;;;;;0.45;0.45;;;31.90;62.30;;;;;;4995593;28;20022;-84
2022/06/20 11:43:36;;;;;;;2.78;1.02;;;31.30;59.00;;;;;;4982054;28;20552;-84
2022/06/20 11:46:30;;;;;;;0.60;0.60;;;31.30;62.60;;;;;;5004631;28;20042;-84
2022/06/20 11:49:05;;;;;;;0.20;0.15;;;31.40;60.80;;;;;;5001966;28;20101;-83
2022/06/20 11:51:52;;;;;;;0.30;0.30;;;31.40;65.60;;;;;;5004695;28;20109;-84
2022/06/20 11:54:37;;;;;;;5.78;1.65;;;31.70;61.20;;;;;;4995691;28;20535;-84
2022/06/20 11:57:24;;;;;;;0.10;0.10;;;32.00;62.00;;;;;;4996762;28;20084;-84
2022/06/20 11:59:59;;;;;;;0.25;0.25;;;31.70;62.90;;;;;;5004427;28;20046;-84
2022/06/20 12:02:53;;;;;;;0.17;0.17;;;31.90;64.50;;;;;;5005209;28;20521;-84
2022/06/20 12:05:18;;;;;;;0.30;0.30;;;31.50;65.50;;;;;;4996337;28;20100;-84
2022/06/20 12:07:58;;;;;;;1.13;0.90;;;31.30;63.00;;;;;;5005607;28;20034;-84
2022/06/20 12:10:58;;;;;;;4.03;1.38;;;31.00;60.00;;;;;;5007905;28;20576;-83
2022/06/20 12:13:33;;;;;;;0.40;0.40;;;30.50;61.60;;;;;;4998375;28;20037;-84
2022/06/20 12:16:36;;;;;;;0.10;0.10;;;30.20;62.70;;;;;;5005907;28;20048;-84
2022/06/20 12:25:28;;;;;;;0.65;0.65;;;30.40;62.30;;;;;;5005838;28;20052;-84
2022/06/20 12:27:54;;;;;;;0.30;0.30;;;30.30;63.30;;;;;;5002268;28;20037;-84
2022/06/20 12:30:20;;;;;;;0.20;0.20;;;30.40;64.40;;;;;;5006412;28;20034;-84
2022/06/20 12:32:49;;;;;;;;;;;30.30;65.50;;;;;;5009126;28;20512;-84
2022/06/20 12:35:44;;;;;;;2.03;0.95;;;30.40;69.70;;;;;;5010839;28;19923;-84
2022/06/20 12:38:13;;;;;;;0.47;0.47;;;30.60;67.50;;;;;;5010836;28;20077;-84
2022/06/20 12:41:04;;;;;;;0.43;0.32;;;30.30;68.10;;;;;;5008261;28;20036;-84
2022/06/20 12:43:56;;;;;;;0.75;0.65;;;30.30;66.40;;;;;;4999080;28;20047;-84
2022/06/20 12:46:38;;;;;;;0.20;0.20;;;30.30;67.10;;;;;;4993573;28;20057;-84
2022/06/20 12:49:28;;;;;;;0.28;0.28;;;30.10;63.50;;;;;;5006747;28;20408;-84
2022/06/20 12:52:31;;;;;;;0.25;0.25;;;29.50;63.30;;;;;;5002240;28;20105;-84
2022/06/20 12:55:27;;;;;;;1.45;0.45;;;29.50;63.90;;;;;;5002771;28;20117;-84
2022/06/20 12:58:25;;;;;;;0.63;0.63;;;29.60;64.80;;;;;;5001914;28;20096;-84
2022/06/20 13:00:58;;;;;;;0.70;0.65;;;29.80;64.90;;;;;;5001232;28;20125;-84
2022/06/20 13:04:02;;;;;;;2.75;1.08;;;29.90;67.00;;;;;;5002659;28;20034;-84
2022/06/20 13:06:43;;;;;;;0.22;0.22;;;29.90;66.90;;;;;;5003155;28;20037;-84
2022/06/20 13:09:33;;;;;;;0.38;0.25;;;30.10;71.90;;;;;;5003341;28;20036;-84
2022/06/20 13:12:07;;;;;;;3.28;1.38;;;30.50;71.30;;;;;;5006821;28;20041;-84
2022/06/20 13:15:05;;;;;;;0.30;0.15;;;30.30;64.90;;;;;;4989251;28;20607;-84
2022/06/20 13:17:46;;;;;;;0.20;0.20;;;30.10;67.60;;;;;;5007094;28;20034;-84
2022/06/20 13:20:35;;;;;;;0.20;0.20;;;29.90;64.70;;;;;;5006735;28;20866;-84
2022/06/20 13:23:34;;;;;;;0.65;0.43;;;30.00;67.90;;;;;;5007009;28;20033;-84
2022/06/20 13:26:19;;;;;;;0.98;0.75;;;30.00;66.80;;;;;;4903068;29;20200;-83
2022/06/20 13:28:48;;;;;;;;;;;29.80;64.90;;;;;;4904669;29;20035;-84
2022/06/20 13:31:29;;;;;;;1.23;0.88;;;29.60;67.30;;;;;;4906216;29;19922;-83
2022/06/20 13:34:04;;;;;;;4.32;1.42;;;29.30;62.90;;;;;;4907398;29;20036;-84
2022/06/20 13:36:50;;;;;;;0.68;0.50;;;29.50;65.70;;;;;;4907760;29;20187;-84
2022/06/20 13:39:34;;;;;;;;;;;29.60;64.50;;;;;;4905105;29;20442;-84
2022/06/20 13:42:38;;;;;;;0.30;0.30;;;29.80;68.90;;;;;;4908428;29;19911;-84
2022/06/20 13:45:10;;;;;;;0.40;0.40;;;30.20;71.20;;;;;;4898658;29;20140;-84
2022/06/20 13:48:06;;;;;;;0.15;0.15;;;30.40;70.30;;;;;;4907373;29;20507;-84
2022/06/20 13:50:34;;;;;;;0.47;0.47;;;30.40;64.70;;;;;;4907600;29;20032;-84
2022/06/20 13:53:31;;;;;;;0.43;0.40;;;29.90;64.50;;;;;;4908228;29;20051;-83
2022/06/20 13:56:05;;;;;;;0.82;0.82;;;29.80;63.80;;;;;;4908473;29;20194;-83
2022/06/20 13:58:41;;;;;;;2.67;0.63;;;29.50;64.50;;;;;;4918102;29;20175;-83
2022/06/20 14:01:08;;;;;;;;;;;29.60;65.20;;;;;;4946573;29;20071;-83